Time;durP1;ratioP1;P1;durP2;ratioP2;P2;SDS_P1;SDS_P2;PMS_P1;PMS_P2;Temp;Humidity;BMP_temperature;BMP_pressure;BME280_temperature;BME280_humidity;BME280_pressure;Samples;Min_cycle;Max_cycle;Signal;HPM_P1;HPM_P2
2024/01/31 00:00:38;;;;;;;8.27;0.20;;;;;;;3.32;57.92;103075.19;4936946;28;20054;-68
2024/01/31 00:03:07;;;;;;;2.42;0.20;;;;;;;2.68;59.98;103081.16;4939006;28;20054;-67
2024/01/31 00:05:33;;;;;;;2.63;0.22;;;;;;;2.72;60.18;103086.44;4915146;28;20047;-69
2024/01/31 00:08:00;;;;;;;4.40;0.47;;;;;;;2.82;60.13;103081.53;4950072;28;20728;-67
2024/01/31 00:10:26;;;;;;;4.05;0.10;;;;;;;2.86;59.71;103086.81;4946895;28;20042;-69
2024/01/31 00:12:54;;;;;;;2.67;0.17;;;;;;;2.79;59.75;103078.88;4935781;28;21229;-73
2024/01/31 00:15:21;;;;;;;6.40;0.10;;;;;;;2.90;60.05;103087.78;4939622;28;20134;-71
2024/01/31 00:17:47;;;;;;;6.00;0.60;;;;;;;2.55;60.48;103090.25;4944780;28;20035;-68
2024/01/31 00:20:12;;;;;;;2.38;0.20;;;;;;;2.61;60.02;103093.00;4942261;28;20043;-69
2024/01/31 00:22:40;;;;;;;10.00;0.30;;;;;;;3.14;59.02;103093.63;4933798;28;20043;-69
2024/01/31 00:25:08;;;;;;;4.03;0.28;;;;;;;2.86;59.19;103099.75;4953083;28;20035;-73
2024/01/31 00:27:34;;;;;;;19.88;0.63;;;;;;;2.89;59.85;103107.59;4944768;28;20034;-68
2024/01/31 00:29:59;;;;;;;9.43;0.77;;;;;;;3.11;58.72;103109.06;4928705;28;20388;-73
2024/01/31 00:32:29;;;;;;;2.83;0.28;;;;;;;2.83;59.78;103119.47;4939414;28;20070;-69
2024/01/31 00:34:57;;;;;;;5.20;0.32;;;;;;;2.92;59.74;103118.00;4945518;28;20047;-65
2024/01/31 00:37:23;;;;;;;9.18;0.60;;;;;;;2.59;60.46;103120.50;4939471;28;20066;-68
2024/01/31 00:39:53;;;;;;;5.82;0.20;;;;;;;2.80;59.69;103142.59;4930518;28;20058;-68
2024/01/31 00:42:21;;;;;;;3.22;0.45;;;;;;;2.08;61.50;103134.44;4938448;28;20151;-69
2024/01/31 00:44:47;;;;;;;5.10;0.73;;;;;;;2.21;60.33;103120.22;4944540;28;20126;-77
2024/01/31 00:47:16;;;;;;;2.75;0.15;;;;;;;2.49;59.87;103118.50;4937852;28;20039;-69
2024/01/31 00:49:41;;;;;;;7.72;0.20;;;;;;;1.98;60.93;103128.94;4915580;28;20092;-70
2024/01/31 00:52:07;;;;;;;5.03;0.30;;;;;;;1.96;60.56;103134.06;4936267;28;20043;-70
2024/01/31 00:54:33;;;;;;;6.32;0.60;;;;;;;2.50;59.31;103131.41;4937787;28;20430;-71
2024/01/31 00:57:01;;;;;;;4.38;0.10;;;;;;;2.78;58.27;103145.16;4935357;28;20035;-71
2024/01/31 00:59:26;;;;;;;7.78;0.35;;;;;;;2.64;58.79;103128.38;4933777;28;20049;-72
2024/01/31 01:01:52;;;;;;;3.33;0.47;;;;;;;2.36;59.01;103137.88;4939103;28;20066;-74
2024/01/31 01:04:23;;;;;;;4.60;0.70;;;;;;;2.42;58.75;103145.81;4930095;28;20133;-70
2024/01/31 01:06:51;;;;;;;0.85;0.20;;;;;;;2.70;58.41;103152.66;4939343;28;20058;-70
2024/01/31 01:09:19;;;;;;;8.45;0.20;;;;;;;2.59;58.49;103148.88;4937453;28;20039;-71
2024/01/31 01:11:44;;;;;;;4.70;0.30;;;;;;;2.68;57.86;103138.84;4929957;28;20031;-69
2024/01/31 01:14:09;;;;;;;4.78;0.47;;;;;;;2.81;57.39;103131.44;4935427;28;20465;-67
2024/01/31 01:16:35;;;;;;;2.38;0.20;;;;;;;3.03;57.03;103141.56;4931983;28;20047;-64
2024/01/31 01:19:04;;;;;;;1.98;0.30;;;;;;;2.86;57.39;103138.47;4929178;28;20224;-68
2024/01/31 01:21:31;;;;;;;7.72;0.13;;;;;;;3.07;57.08;103147.66;4944460;28;20050;-67
2024/01/31 01:23:56;;;;;;;5.35;0.55;;;;;;;3.01;57.12;103143.22;4928611;28;20038;-71
2024/01/31 01:26:24;;;;;;;5.70;0.40;;;;;;;2.95;57.82;103143.91;4935279;28;20643;-71
2024/01/31 01:28:52;;;;;;;4.82;0.47;;;;;;;3.05;57.05;103145.06;4935615;28;20089;-73
2024/01/31 01:31:20;;;;;;;8.07;0.45;;;;;;;3.25;57.12;103145.59;4938385;28;20043;-73
2024/01/31 01:33:48;;;;;;;13.20;0.85;;;;;;;3.26;57.02;103143.88;4950585;28;20047;-67
2024/01/31 01:36:16;;;;;;;9.07;0.10;;;;;;;3.22;56.99;103147.22;4938530;28;20043;-70
2024/01/31 01:38:49;;;;;;;5.00;0.55;;;;;;;3.19;56.87;103148.03;4935873;28;20039;-68
2024/01/31 01:41:17;;;;;;;4.05;0.50;;;;;;;3.03;57.25;103145.84;4957974;28;20125;-67
2024/01/31 01:43:43;;;;;;;3.58;0.20;;;;;;;3.17;56.73;103145.38;4950522;28;20760;-69
2024/01/31 01:46:11;;;;;;;2.70;0.20;;;;;;;3.21;56.91;103161.00;4938820;28;20039;-70
2024/01/31 01:48:37;;;;;;;9.48;0.35;;;;;;;3.29;56.12;103159.50;4933083;28;20059;-70
2024/01/31 01:51:03;;;;;;;4.32;0.22;;;;;;;3.29;55.92;103151.75;4932457;28;20230;-74
2024/01/31 01:53:33;;;;;;;4.78;0.60;;;;;;;3.38;55.80;103147.72;4971288;28;20077;-73
2024/01/31 01:56:04;;;;;;;5.38;0.57;;;;;;;3.34;55.23;103157.94;4946462;28;20714;-75
2024/01/31 01:58:33;;;;;;;5.82;0.75;;;;;;;3.15;54.53;103151.34;4950358;28;20043;-76
2024/01/31 02:01:03;;;;;;;4.28;0.13;;;;;;;3.05;53.87;103145.06;4947440;28;20054;-74
2024/01/31 02:03:29;;;;;;;9.95;0.52;;;;;;;3.24;52.17;103135.22;4938435;28;20046;-74
2024/01/31 02:06:03;;;;;;;1.98;0.10;;;;;;;3.42;51.47;103140.03;4937199;28;20047;-77
2024/01/31 02:08:39;;;;;;;6.18;0.85;;;;;;;3.47;51.56;103139.34;4912142;28;20027;-66
2024/01/31 02:11:12;;;;;;;2.53;0.15;;;;;;;3.63;51.76;103139.69;4921026;28;21137;-70
2024/01/31 02:13:37;;;;;;;2.80;0.10;;;;;;;3.32;52.51;103144.09;4912031;28;20042;-67
2024/01/31 02:16:03;;;;;;;5.00;0.25;;;;;;;3.35;52.89;103145.03;4936253;28;20096;-67
2024/01/31 02:18:31;;;;;;;7.15;0.50;;;;;;;3.52;53.28;103148.06;4953927;28;20049;-69
2024/01/31 02:20:56;;;;;;;6.78;0.40;;;;;;;3.57;53.02;103148.19;4902222;28;20042;-64
2024/01/31 02:23:27;;;;;;;4.00;0.10;;;;;;;3.55;53.18;103142.09;4921861;28;20074;-70
2024/01/31 02:25:55;;;;;;;5.68;0.30;;;;;;;3.44;53.45;103147.00;4938571;28;20942;-70
2024/01/31 02:28:21;;;;;;;8.10;0.30;;;;;;;3.28;53.82;103137.06;4938007;28;20046;-68
2024/01/31 02:30:46;;;;;;;5.20;0.30;;;;;;;3.35;53.88;103145.03;4935636;28;20733;-69
2024/01/31 02:33:12;;;;;;;13.38;0.75;;;;;;;3.34;53.92;103139.84;4939402;28;20027;-71
2024/01/31 02:35:40;;;;;;;9.57;0.55;;;;;;;3.38;53.71;103141.66;4937079;28;20047;-68
2024/01/31 02:38:07;;;;;;;8.05;0.20;;;;;;;2.65;53.75;103149.09;4918770;28;20057;-67
2024/01/31 02:40:33;;;;;;;5.75;0.75;;;;;;;3.03;52.36;103151.88;4935739;28;20062;-67
2024/01/31 02:43:01;;;;;;;2.67;0.20;;;;;;;3.21;51.59;103151.53;4933986;28;20461;-69
2024/01/31 02:45:29;;;;;;;11.15;0.75;;;;;;;3.44;50.78;103152.16;4938103;28;20071;-69
2024/01/31 02:48:01;;;;;;;10.95;0.98;;;;;;;3.45;50.58;103161.69;4915512;28;20035;-72
2024/01/31 02:50:31;;;;;;;4.10;0.30;;;;;;;3.24;50.53;103154.19;4938649;28;20126;-72
2024/01/31 02:52:56;;;;;;;3.47;0.20;;;;;;;3.33;50.54;103151.00;4932438;28;20128;-72
2024/01/31 02:55:22;;;;;;;3.80;0.25;;;;;;;3.34;49.91;103148.47;4954279;28;20061;-72
2024/01/31 02:57:48;;;;;;;5.15;0.68;;;;;;;3.34;49.64;103143.28;4945765;28;20039;-72
2024/01/31 03:00:21;;;;;;;2.73;0.17;;;;;;;3.12;50.03;103151.28;4935948;28;20050;-72
2024/01/31 03:02:46;;;;;;;7.72;0.75;;;;;;;3.37;49.65;103145.09;4942898;28;20030;-72
2024/01/31 03:05:12;;;;;;;5.30;0.22;;;;;;;3.13;49.58;103127.16;4932884;28;20157;-72
2024/01/31 03:07:38;;;;;;;1.85;0.10;;;;;;;3.17;48.69;103123.84;4937645;28;20439;-71
2024/01/31 03:10:05;;;;;;;6.10;0.50;;;;;;;3.27;48.72;103120.69;4946148;28;20075;-71
2024/01/31 03:12:32;;;;;;;8.48;0.52;;;;;;;3.21;48.11;103122.22;4923431;28;20409;-72
2024/01/31 03:15:01;;;;;;;0.88;0.20;;;;;;;3.37;47.92;103119.22;4919667;28;20440;-72
2024/01/31 03:17:27;;;;;;;5.43;0.13;;;;;;;3.29;48.28;103118.16;4931768;28;20086;-70
2024/01/31 03:19:53;;;;;;;5.18;0.20;;;;;;;3.46;47.85;103113.44;4947207;28;20830;-66
2024/01/31 03:22:26;;;;;;;2.03;0.30;;;;;;;3.49;47.76;103116.09;4938153;28;20042;-67
2024/01/31 03:24:51;;;;;;;4.53;0.22;;;;;;;3.49;48.00;103134.19;4933580;28;20525;-67
2024/01/31 03:27:17;;;;;;;5.63;0.40;;;;;;;3.54;47.99;103127.44;4928982;28;20125;-66
2024/01/31 03:29:42;;;;;;;6.07;0.10;;;;;;;3.34;47.75;103121.75;4912011;28;20178;-65
2024/01/31 03:32:08;;;;;;;0.68;0.10;;;;;;;3.31;47.92;103126.81;4905701;28;20169;-67
2024/01/31 03:34:36;;;;;;;8.15;0.40;;;;;;;2.67;48.83;103121.59;4909119;28;21146;-67
2024/01/31 03:37:02;;;;;;;2.05;0.32;;;;;;;2.71;48.84;103115.69;4902234;28;20046;-67
2024/01/31 03:39:30;;;;;;;6.63;0.22;;;;;;;2.41;49.76;103122.53;4921163;28;20124;-69
2024/01/31 03:41:59;;;;;;;5.53;0.55;;;;;;;2.70;48.99;103115.66;4916293;28;20173;-65
2024/01/31 03:44:24;;;;;;;5.13;0.10;;;;;;;3.01;48.25;103116.50;4906708;28;20069;-69
2024/01/31 03:46:55;;;;;;;6.05;0.38;;;;;;;2.97;48.66;103126.75;4933405;28;20035;-69
2024/01/31 03:49:23;;;;;;;5.47;0.20;;;;;;;2.87;48.95;103121.31;4946768;28;20031;-68
2024/01/31 03:51:48;;;;;;;5.90;0.47;;;;;;;2.71;49.07;103122.53;4936980;28;20039;-67
2024/01/31 03:54:16;;;;;;;6.00;0.40;;;;;;;2.80;48.76;103116.78;4943341;28;20039;-68
2024/01/31 03:56:42;;;;;;;5.63;0.30;;;;;;;2.96;48.79;103117.25;4936240;28;20050;-69
2024/01/31 03:59:08;;;;;;;5.43;0.30;;;;;;;2.49;48.80;103110.75;4931361;28;20035;-70
2024/01/31 04:01:36;;;;;;;8.60;0.20;;;;;;;2.60;48.92;103109.34;4953952;28;20547;-68
2024/01/31 04:04:04;;;;;;;5.53;0.57;;;;;;;2.37;49.24;103106.06;4920749;28;20039;-69
2024/01/31 04:06:29;;;;;;;1.65;0.10;;;;;;;2.37;49.04;103115.53;4939363;28;20077;-70
2024/01/31 04:08:57;;;;;;;11.25;0.30;;;;;;;2.50;48.76;103109.91;4937696;28;20031;-69
2024/01/31 04:11:22;;;;;;;0.82;0.10;;;;;;;2.22;49.54;103110.75;4945090;28;20496;-68
2024/01/31 04:13:55;;;;;;;5.00;0.40;;;;;;;2.05;50.30;103118.00;4933802;28;20031;-70
2024/01/31 04:16:21;;;;;;;7.45;0.63;;;;;;;2.40;49.20;103119.09;4924185;28;20039;-69
2024/01/31 04:18:51;;;;;;;3.40;0.65;;;;;;;2.51;49.37;103116.78;4936943;28;20054;-69
2024/01/31 04:21:22;;;;;;;4.00;0.30;;;;;;;2.41;49.61;103117.38;4947257;28;20047;-70
2024/01/31 04:23:50;;;;;;;2.90;0.15;;;;;;;2.61;49.44;103118.84;4951533;28;20035;-69
2024/01/31 04:26:18;;;;;;;4.65;0.57;;;;;;;2.61;49.52;103120.53;4943473;28;20043;-69
2024/01/31 04:28:44;;;;;;;5.32;0.20;;;;;;;2.63;49.36;103113.72;4930298;28;20520;-69
2024/01/31 04:31:14;;;;;;;4.97;0.30;;;;;;;2.69;49.72;103117.34;4931405;28;20050;-69
2024/01/31 04:33:47;;;;;;;3.15;0.20;;;;;;;2.32;50.74;103112.81;4943232;28;20035;-69
2024/01/31 04:36:12;;;;;;;0.65;0.10;;;;;;;2.47;50.50;103123.59;4921022;28;20121;-68
2024/01/31 04:38:42;;;;;;;3.03;0.15;;;;;;;2.47;50.23;103118.44;4936059;28;20030;-67
2024/01/31 04:41:08;;;;;;;3.65;0.32;;;;;;;2.05;51.46;103123.16;4951578;28;20065;-69
2024/01/31 04:43:38;;;;;;;10.82;0.98;;;;;;;2.43;50.73;103116.59;4941630;28;20042;-66
2024/01/31 04:46:04;;;;;;;2.95;0.35;;;;;;;2.38;51.24;103114.69;4937396;28;20050;-67
2024/01/31 04:48:29;;;;;;;5.30;0.63;;;;;;;2.52;51.00;103113.41;4939479;28;20039;-69
2024/01/31 04:50:57;;;;;;;4.55;0.30;;;;;;;2.70;50.41;103115.66;4938357;28;20042;-67
2024/01/31 04:53:22;;;;;;;9.32;0.60;;;;;;;2.73;50.44;103119.19;4945217;28;20378;-70
2024/01/31 04:55:48;;;;;;;4.43;0.30;;;;;;;2.56;51.12;103112.66;4951234;28;20038;-68
2024/01/31 04:58:16;;;;;;;5.97;0.25;;;;;;;2.89;50.25;103119.59;4937595;28;20510;-70
2024/01/31 05:00:44;;;;;;;2.45;0.50;;;;;;;2.92;50.17;103117.13;4943442;28;20049;-69
2024/01/31 05:03:09;;;;;;;7.18;0.30;;;;;;;2.83;50.28;103119.47;4940818;28;20100;-68
2024/01/31 05:05:36;;;;;;;14.38;0.40;;;;;;;2.80;50.66;103117.66;4933792;28;20688;-69
2024/01/31 05:08:05;;;;;;;4.68;0.30;;;;;;;2.82;50.43;103122.84;4941048;28;20245;-72
2024/01/31 05:10:36;;;;;;;6.47;0.95;;;;;;;2.68;50.88;103128.50;4934850;28;20036;-73
2024/01/31 05:13:02;;;;;;;11.82;0.40;;;;;;;2.93;50.30;103134.38;4950895;28;20094;-74
2024/01/31 05:15:31;;;;;;;4.47;0.20;;;;;;;2.74;50.67;103136.44;4929074;28;20115;-73
2024/01/31 05:17:59;;;;;;;7.32;0.50;;;;;;;2.65;51.08;103133.59;4903718;28;20351;-73
2024/01/31 05:20:29;;;;;;;4.57;0.55;;;;;;;2.63;50.84;103130.09;4899929;28;20321;-72
2024/01/31 05:22:57;;;;;;;2.03;0.20;;;;;;;2.82;50.70;103148.69;4915198;28;20506;-73
2024/01/31 05:25:23;;;;;;;2.05;0.20;;;;;;;2.55;50.82;103159.94;4923247;28;20080;-72
2024/01/31 05:27:51;;;;;;;1.45;0.20;;;;;;;2.75;50.82;103164.00;4922484;28;20564;-72
2024/01/31 05:30:18;;;;;;;8.43;0.50;;;;;;;2.56;50.78;103153.97;4935780;28;20055;-73
2024/01/31 05:32:47;;;;;;;2.42;0.20;;;;;;;2.18;52.06;103158.84;4937897;28;20126;-75
2024/01/31 05:35:15;;;;;;;2.50;0.30;;;;;;;2.37;52.01;103167.13;4952002;28;20175;-73
2024/01/31 05:37:43;;;;;;;1.77;0.20;;;;;;;2.44;51.78;103159.63;4930977;28;20275;-74
2024/01/31 05:40:11;;;;;;;6.43;0.28;;;;;;;2.64;51.15;103157.63;4942870;28;20051;-74
2024/01/31 05:42:39;;;;;;;7.55;0.20;;;;;;;2.73;50.67;103155.34;4943022;28;20735;-74
2024/01/31 05:45:07;;;;;;;7.50;0.73;;;;;;;2.47;51.43;103152.00;4933422;28;20046;-73
2024/01/31 05:47:33;;;;;;;6.30;0.20;;;;;;;2.53;51.49;103148.69;4924243;28;20105;-70
2024/01/31 05:49:59;;;;;;;8.50;0.90;;;;;;;2.36;52.20;103145.63;4929647;28;20050;-70
2024/01/31 05:52:24;;;;;;;6.35;0.90;;;;;;;2.57;51.66;103156.59;4947985;28;20129;-69
2024/01/31 05:54:57;;;;;;;14.80;1.10;;;;;;;2.44;52.56;103161.34;4922435;28;20073;-71
2024/01/31 05:57:25;;;;;;;8.43;0.82;;;;;;;2.50;52.00;103152.06;4956091;28;20510;-70
2024/01/31 05:59:51;;;;;;;11.45;1.08;;;;;;;2.10;53.31;103160.28;4931660;28;20063;-73
2024/01/31 06:02:21;;;;;;;6.97;1.02;;;;;;;2.26;52.99;103152.19;4932763;28;20122;-72
2024/01/31 06:04:46;;;;;;;3.30;0.20;;;;;;;2.28;53.21;103145.38;4937013;28;20062;-72
2024/01/31 06:07:14;;;;;;;1.75;0.28;;;;;;;2.34;52.85;103158.47;4937330;28;20113;-64
2024/01/31 06:09:39;;;;;;;5.55;0.65;;;;;;;2.18;53.37;103158.84;4938985;28;20114;-70
2024/01/31 06:12:06;;;;;;;7.15;0.45;;;;;;;2.12;53.14;103151.75;4933540;28;20602;-72
2024/01/31 06:14:32;;;;;;;20.02;1.13;;;;;;;1.97;53.53;103161.59;4965073;28;20191;-70
2024/01/31 06:16:58;;;;;;;9.52;0.47;;;;;;;1.85;53.68;103166.34;4953733;28;20051;-69
2024/01/31 06:19:26;;;;;;;6.07;0.50;;;;;;;1.74;54.21;103166.00;4940116;28;20035;-70
2024/01/31 06:21:54;;;;;;;5.88;0.63;;;;;;;1.71;53.95;103165.91;4946278;28;20123;-70
2024/01/31 06:24:29;;;;;;;12.93;1.25;;;;;;;1.63;54.07;103159.59;4923729;28;20121;-70
2024/01/31 06:26:54;;;;;;;6.90;0.57;;;;;;;1.44;54.93;103166.69;4940662;28;20119;-70
2024/01/31 06:29:25;;;;;;;8.80;1.33;;;;;;;1.53;54.54;103168.72;4948684;28;20094;-70
2024/01/31 06:31:52;;;;;;;2.17;0.40;;;;;;;1.45;54.53;103165.00;4937254;28;20078;-70
2024/01/31 06:34:20;;;;;;;5.60;0.45;;;;;;;1.42;54.81;103186.38;4932431;28;20644;-70
2024/01/31 06:36:45;;;;;;;8.57;0.55;;;;;;;1.36;54.78;103186.13;4942458;28;20363;-70
2024/01/31 06:39:11;;;;;;;3.20;0.40;;;;;;;1.21;55.52;103186.44;4934401;28;20143;-69
2024/01/31 06:41:44;;;;;;;6.72;0.57;;;;;;;1.18;56.17;103188.06;4909289;28;20039;-70
2024/01/31 06:44:10;;;;;;;9.15;0.85;;;;;;;1.37;55.45;103187.88;4917809;28;20039;-71
2024/01/31 06:46:39;;;;;;;3.58;0.32;;;;;;;1.44;55.00;103195.06;4909003;28;21177;-70
2024/01/31 06:49:04;;;;;;;9.07;0.30;;;;;;;1.50;54.75;103197.81;4904476;28;20031;-71
2024/01/31 06:51:32;;;;;;;13.50;1.08;;;;;;;1.50;54.85;103199.53;4894190;28;20039;-70
2024/01/31 06:53:59;;;;;;;3.22;0.60;;;;;;;1.52;55.02;103209.06;4905627;28;20903;-69
2024/01/31 06:56:29;;;;;;;7.32;0.68;;;;;;;1.75;54.29;103211.56;4906834;28;20051;-70
2024/01/31 06:58:59;;;;;;;5.85;0.75;;;;;;;1.59;54.69;103219.59;4915969;28;20114;-69
2024/01/31 07:01:27;;;;;;;6.13;0.68;;;;;;;1.19;55.22;103224.16;4950459;28;20042;-70
2024/01/31 07:03:56;;;;;;;6.70;0.30;;;;;;;1.69;54.24;103232.00;4938904;28;20036;-70
2024/01/31 07:06:22;;;;;;;3.58;0.28;;;;;;;1.66;54.28;103231.88;4916004;28;20122;-71
2024/01/31 07:08:49;;;;;;;7.20;0.20;;;;;;;1.38;55.09;103230.88;4946440;28;20046;-74
2024/01/31 07:11:17;;;;;;;7.53;0.50;;;;;;;1.65;54.23;103220.69;4900786;28;20039;-73
2024/01/31 07:13:46;;;;;;;2.60;0.45;;;;;;;1.29;55.32;103218.53;4891449;28;20085;-74
2024/01/31 07:16:12;;;;;;;3.83;0.40;;;;;;;1.64;54.41;103228.38;4894376;28;20047;-73
2024/01/31 07:18:43;;;;;;;2.15;0.40;;;;;;;1.79;54.17;103226.31;4872456;28;20053;-72
2024/01/31 07:21:23;;;;;;;7.90;0.30;;;;;;;1.67;54.32;103229.34;4904546;28;20051;-73
2024/01/31 07:23:48;;;;;;;5.63;0.20;;;;;;;1.76;53.92;103226.22;4910063;28;20036;-71
2024/01/31 07:26:22;;;;;;;5.90;0.45;;;;;;;1.76;53.98;103231.38;4914488;28;20048;-71
2024/01/31 07:28:49;;;;;;;8.65;0.45;;;;;;;0.95;55.54;103234.44;4917051;28;20094;-71
2024/01/31 07:31:16;;;;;;;10.05;0.70;;;;;;;1.59;54.06;103228.19;4918007;28;20039;-72
2024/01/31 07:33:42;;;;;;;3.13;0.32;;;;;;;2.01;52.99;103217.59;4913416;28;20516;-71
2024/01/31 07:36:08;;;;;;;7.15;0.20;;;;;;;1.85;53.38;103225.66;4916971;28;20054;-71
2024/01/31 07:38:35;;;;;;;7.75;0.88;;;;;;;2.09;52.77;103228.19;4927132;28;20051;-71
2024/01/31 07:41:03;;;;;;;6.20;0.50;;;;;;;1.68;53.12;103220.78;4911832;28;20118;-71
2024/01/31 07:43:28;;;;;;;4.80;0.38;;;;;;;1.87;53.22;103224.03;4914024;28;20047;-71
2024/01/31 07:45:57;;;;;;;10.02;0.30;;;;;;;1.79;53.11;103221.16;4922605;28;20047;-71
2024/01/31 07:48:28;;;;;;;4.25;0.43;;;;;;;1.81;52.70;103218.66;4932870;28;20050;-72
2024/01/31 07:50:58;;;;;;;3.95;0.32;;;;;;;1.77;52.72;103220.22;4914353;28;20126;-71
2024/01/31 07:53:27;;;;;;;4.85;0.35;;;;;;;2.29;51.11;103219.41;4931423;28;20040;-72
2024/01/31 07:56:00;;;;;;;6.78;0.82;;;;;;;2.10;52.10;103211.88;4913200;28;20039;-72
2024/01/31 07:58:26;;;;;;;7.55;0.88;;;;;;;2.47;51.14;103220.81;4914806;28;20027;-71
2024/01/31 08:00:54;;;;;;;4.13;0.43;;;;;;;2.57;50.71;103217.69;4927146;28;20070;-72
2024/01/31 08:03:27;;;;;;;6.25;0.28;;;;;;;2.04;52.28;103222.00;4914934;28;20078;-72
2024/01/31 08:06:00;;;;;;;3.88;0.13;;;;;;;2.38;51.46;103212.75;4918635;28;20062;-67
2024/01/31 08:08:29;;;;;;;8.50;0.50;;;;;;;2.73;50.53;103209.59;4915042;28;20384;-64
2024/01/31 08:10:57;;;;;;;5.32;0.22;;;;;;;2.77;50.24;103207.94;4919533;28;20503;-68
2024/01/31 08:13:24;;;;;;;3.45;0.35;;;;;;;2.51;51.17;103204.56;4916871;28;20601;-66
2024/01/31 08:15:50;;;;;;;11.48;0.75;;;;;;;2.28;52.27;103207.31;4927310;28;20471;-67
2024/01/31 08:18:16;;;;;;;3.63;0.28;;;;;;;2.04;52.47;103211.66;4917238;28;20117;-68
2024/01/31 08:20:41;;;;;;;5.18;0.50;;;;;;;2.07;52.86;103222.09;4913474;28;20049;-66
2024/01/31 08:23:07;;;;;;;6.53;0.30;;;;;;;2.48;52.11;103219.97;4918034;28;20039;-64
2024/01/31 08:25:37;;;;;;;5.85;0.30;;;;;;;2.26;52.15;103216.69;4932307;28;20049;-68
2024/01/31 08:28:03;;;;;;;7.15;0.57;;;;;;;2.07;52.87;103224.69;4893999;28;20071;-67
2024/01/31 08:30:31;;;;;;;8.68;0.30;;;;;;;2.40;52.13;103230.06;4887324;28;20224;-68
2024/01/31 08:32:58;;;;;;;3.38;0.20;;;;;;;2.87;51.04;103224.63;4881546;28;21039;-64
2024/01/31 08:35:29;;;;;;;5.38;0.25;;;;;;;2.83;51.24;103220.19;4873176;28;20336;-67
2024/01/31 08:37:56;;;;;;;3.88;0.38;;;;;;;2.79;51.28;103226.97;4899682;28;20577;-68
2024/01/31 08:40:21;;;;;;;4.55;0.25;;;;;;;2.91;51.09;103224.75;4922104;28;20058;-69
2024/01/31 08:42:47;;;;;;;7.47;0.43;;;;;;;3.05;50.82;103221.72;4914569;28;20058;-68
2024/01/31 08:45:13;;;;;;;4.60;0.30;;;;;;;3.22;49.90;103224.75;4920092;28;20039;-66
2024/01/31 08:47:42;;;;;;;8.02;0.45;;;;;;;3.12;51.05;103221.03;4914666;28;20035;-68
2024/01/31 08:50:09;;;;;;;6.78;1.13;;;;;;;2.60;51.58;103197.13;4935003;28;20057;-68
2024/01/31 08:52:40;;;;;;;5.45;0.50;;;;;;;2.43;52.23;103199.19;4925445;28;20418;-67
2024/01/31 08:55:06;;;;;;;6.38;0.45;;;;;;;2.16;52.87;103195.75;4918604;28;20044;-68
2024/01/31 08:57:34;;;;;;;3.58;0.65;;;;;;;2.48;52.27;103182.13;4933472;28;20567;-67
2024/01/31 09:00:02;;;;;;;4.88;0.60;;;;;;;2.56;51.67;103184.97;4918979;28;20047;-67
2024/01/31 09:02:28;;;;;;;2.30;0.40;;;;;;;2.24;52.74;103166.78;4923182;28;20035;-67
2024/01/31 09:04:53;;;;;;;3.55;0.60;;;;;;;1.97;53.20;103155.56;4914810;28;20812;-68
2024/01/31 09:07:19;;;;;;;4.88;0.20;;;;;;;2.37;52.50;103161.97;4937900;28;20055;-67
2024/01/31 09:09:50;;;;;;;3.92;0.20;;;;;;;2.42;51.51;103160.41;4910791;28;20050;-68
2024/01/31 09:12:20;;;;;;;2.58;0.38;;;;;;;2.65;51.62;103164.56;4921665;28;20063;-69
2024/01/31 09:14:48;;;;;;;4.50;0.50;;;;;;;2.19;51.90;103172.59;4914605;28;20044;-66
2024/01/31 09:17:13;;;;;;;4.28;0.20;;;;;;;2.02;52.69;103174.63;4932999;28;20047;-69
2024/01/31 09:19:40;;;;;;;5.97;0.20;;;;;;;1.66;52.62;103186.38;4906304;28;20237;-67
2024/01/31 09:22:08;;;;;;;2.85;0.45;;;;;;;2.25;51.72;103189.16;4917036;28;20039;-67
2024/01/31 09:24:35;;;;;;;4.65;0.30;;;;;;;2.58;50.34;103188.47;4918382;28;20464;-66
2024/01/31 09:27:00;;;;;;;7.60;0.30;;;;;;;2.58;50.43;103172.97;4917587;28;20039;-66
2024/01/31 09:29:26;;;;;;;9.38;1.38;;;;;;;2.32;50.68;103173.03;4926188;28;20034;-68
2024/01/31 09:31:59;;;;;;;4.55;0.35;;;;;;;2.17;51.03;103163.94;4939201;28;20498;-66
2024/01/31 09:34:25;;;;;;;3.97;0.30;;;;;;;2.81;49.96;103145.22;4910820;28;20039;-69
2024/01/31 09:36:55;;;;;;;3.13;0.40;;;;;;;2.69;50.24;103150.94;4943438;28;20027;-67
2024/01/31 09:39:23;;;;;;;4.47;0.68;;;;;;;2.64;50.15;103125.78;4952310;28;20030;-65
2024/01/31 09:41:48;;;;;;;1.85;0.10;;;;;;;2.46;50.12;103128.69;4931676;28;20205;-66
2024/01/31 09:44:18;;;;;;;0.57;0.10;;;;;;;3.53;48.77;103139.47;4952625;28;20086;-66
2024/01/31 09:46:49;;;;;;;1.95;0.30;;;;;;;3.71;47.99;103143.38;4923426;28;20050;-66
2024/01/31 09:49:16;;;;;;;2.35;0.10;;;;;;;3.91;47.24;103141.28;4933674;28;20023;-67
2024/01/31 09:51:44;;;;;;;2.45;0.20;;;;;;;3.62;47.19;103133.66;4911306;28;20039;-66
2024/01/31 09:54:10;;;;;;;4.82;0.52;;;;;;;3.71;46.76;103136.47;4919505;28;20051;-66
2024/01/31 09:56:39;;;;;;;1.38;0.40;;;;;;;3.61;47.91;103149.16;4917612;28;20433;-66
2024/01/31 09:59:10;;;;;;;6.03;0.20;;;;;;;2.95;48.31;103150.78;4919066;28;20036;-65
2024/01/31 10:01:37;;;;;;;1.85;0.20;;;;;;;2.96;47.99;103144.81;4907479;28;20641;-65
2024/01/31 10:04:05;;;;;;;1.10;0.30;;;;;;;2.85;47.76;103141.91;4911778;28;20124;-67
2024/01/31 10:06:33;;;;;;;5.85;0.43;;;;;;;2.93;48.50;103139.53;4915844;28;20047;-68
2024/01/31 10:09:06;;;;;;;2.10;0.40;;;;;;;3.00;47.11;103144.03;4914614;28;20047;-69
2024/01/31 10:11:31;;;;;;;4.05;0.35;;;;;;;3.55;46.97;103131.75;4916521;28;20039;-69
2024/01/31 10:13:57;;;;;;;0.70;0.20;;;;;;;3.32;46.44;103132.03;4908173;28;20050;-65
2024/01/31 10:16:25;;;;;;;7.15;0.35;;;;;;;3.37;46.04;103117.50;4922653;28;20099;-68
2024/01/31 10:18:51;;;;;;;3.78;0.30;;;;;;;2.55;48.15;103131.56;4919445;28;20042;-69
2024/01/31 10:21:21;;;;;;;4.05;0.40;;;;;;;3.10;47.27;103124.50;4940990;28;20126;-69
2024/01/31 10:24:02;;;;;;;5.10;0.55;;;;;;;2.73;47.41;103121.78;4927998;28;20653;-67
2024/01/31 10:26:38;;;;;;;0.77;0.70;;;;;;;2.26;48.75;103120.34;4932481;28;20035;-67
2024/01/31 10:29:04;;;;;;;3.55;0.40;;;;;;;2.55;48.36;103129.88;4894373;28;1094419;-66
2024/01/31 10:31:29;;;;;;;3.38;0.50;;;;;;;2.85;48.29;103129.00;4931752;28;20084;-69
2024/01/31 10:33:58;;;;;;;5.75;0.95;;;;;;;2.31;48.75;103124.84;4944167;28;20031;-67
2024/01/31 10:36:30;;;;;;;2.53;0.90;;;;;;;2.74;48.10;103123.53;4949458;28;20417;-67
2024/01/31 10:38:56;;;;;;;4.40;1.10;;;;;;;2.94;47.67;103130.97;4930643;28;20654;-65
2024/01/31 10:41:22;;;;;;;2.35;1.13;;;;;;;2.77;47.62;103117.56;4934557;28;20046;-66
2024/01/31 10:43:48;;;;;;;4.28;0.70;;;;;;;2.51;48.27;103114.22;4930412;28;20716;-67
2024/01/31 10:46:19;;;;;;;2.17;0.70;;;;;;;3.02;47.04;103110.50;4940448;28;20035;-69
2024/01/31 10:48:44;;;;;;;2.00;0.98;;;;;;;2.48;48.28;103099.50;4931764;28;20039;-65
2024/01/31 10:51:14;;;;;;;3.75;1.27;;;;;;;2.43;48.63;103095.06;4937469;28;20050;-66
2024/01/31 10:53:40;;;;;;;3.95;1.00;;;;;;;3.46;47.15;103093.63;4931140;28;20077;-67
2024/01/31 10:56:07;;;;;;;2.78;1.00;;;;;;;2.87;48.08;103085.16;4931661;28;21174;-68
2024/01/31 10:58:33;;;;;;;6.47;1.20;;;;;;;2.96;47.90;103088.84;4935302;28;20049;-67
2024/01/31 11:01:02;;;;;;;1.50;1.00;;;;;;;3.00;47.40;103084.63;4945272;28;20133;-67
2024/01/31 11:03:28;;;;;;;3.05;1.10;;;;;;;2.87;47.88;103067.06;4936053;28;20031;-66
2024/01/31 11:05:53;;;;;;;9.35;1.33;;;;;;;3.15;47.94;103073.81;4929999;28;20413;-67
2024/01/31 11:08:20;;;;;;;3.55;1.77;;;;;;;3.04;47.97;103072.66;4937340;28;20506;-67
2024/01/31 11:10:46;;;;;;;2.78;1.40;;;;;;;3.64;47.31;103058.72;4924780;28;20051;-66
2024/01/31 11:13:11;;;;;;;3.72;1.48;;;;;;;2.80;48.43;103062.53;4919460;28;20397;-66
2024/01/31 11:15:40;;;;;;;3.38;1.85;;;;;;;3.46;46.45;103060.00;4936355;28;20860;-67
2024/01/31 11:18:10;;;;;;;4.35;1.75;;;;;;;3.25;47.50;103051.66;4931642;28;20107;-68
2024/01/31 11:20:44;;;;;;;2.60;1.85;;;;;;;3.07;47.48;103052.97;4931604;28;20117;-67
2024/01/31 11:23:16;;;;;;;3.75;2.42;;;;;;;2.57;49.06;103027.50;4928400;28;20743;-65
2024/01/31 11:25:45;;;;;;;6.28;2.45;;;;;;;3.20;47.75;103030.88;4936246;28;20046;-66
2024/01/31 11:28:14;;;;;;;4.90;2.55;;;;;;;2.82;48.79;103023.00;4928862;28;22091;-68
2024/01/31 11:30:42;;;;;;;6.43;2.58;;;;;;;2.79;48.54;103017.75;4924857;28;20065;-67
2024/01/31 11:33:10;;;;;;;4.90;2.72;;;;;;;2.89;48.05;103008.53;4929055;28;20108;-67